Time;durP1;ratioP1;P1;durP2;ratioP2;P2;SDS_P1;SDS_P2;PMS_P1;PMS_P2;Temp;Humidity;BMP_temperature;BMP_pressure;BME280_temperature;BME280_humidity;BME280_pressure;Samples;Min_cycle;Max_cycle;Signal;HPM_P1;HPM_P2
2022/06/20 00:09:01;;;;;;;1.85;0.70;;;;;;;18.21;77.79;101088.31;20797376;28;20099;-77
2022/06/20 00:19:03;;;;;;;1.35;0.73;;;;;;;18.20;77.66;101083.94;20797592;28;20392;-77
2022/06/20 00:29:06;;;;;;;2.10;0.98;;;;;;;18.17;77.53;101039.22;20797874;28;20056;-77
2022/06/20 00:39:10;;;;;;;2.17;0.77;;;;;;;18.15;77.47;101053.84;20836285;28;20405;-77
2022/06/20 00:49:18;;;;;;;1.98;0.70;;;;;;;17.97;77.43;101028.34;20868801;28;20102;-77
2022/06/20 00:59:38;;;;;;;3.28;0.68;;;;;;;18.20;77.45;101105.47;20895098;28;20053;-77
2022/06/20 01:09:43;;;;;;;1.00;0.50;;;;;;;18.14;77.49;101079.06;20880039;28;20049;-77
2022/06/20 01:20:01;;;;;;;1.23;0.73;;;;;;;18.16;77.22;101099.50;20811021;28;20055;-77
2022/06/20 01:30:03;;;;;;;2.28;0.60;;;;;;;18.17;77.17;101074.25;20824586;28;20049;-77
2022/06/20 01:40:10;;;;;;;0.93;0.55;;;;;;;18.16;77.23;101104.03;20873495;28;20326;-78
2022/06/20 01:50:12;;;;;;;1.20;0.57;;;;;;;18.16;77.24;101087.88;20890317;28;20498;-77
2022/06/20 02:00:19;;;;;;;1.20;0.65;;;;;;;17.96;77.05;101055.38;20855989;28;20053;-78
2022/06/20 02:10:25;;;;;;;2.40;0.70;;;;;;;18.12;76.99;101087.28;20890016;28;20048;-77
2022/06/20 02:20:29;;;;;;;1.15;0.70;;;;;;;18.14;77.03;101112.25;20886441;28;20163;-77
2022/06/20 02:30:30;;;;;;;1.77;0.57;;;;;;;18.14;77.04;101135.66;20887978;28;20506;-77
2022/06/20 02:40:32;;;;;;;1.05;0.57;;;;;;;18.14;76.87;101149.13;20804295;28;20068;-77
2022/06/20 02:50:37;;;;;;;1.50;0.50;;;;;;;17.99;76.84;101119.78;20837418;28;20045;-77
2022/06/20 03:00:58;;;;;;;1.57;0.70;;;;;;;17.91;76.52;101095.34;20803163;28;20048;-77
2022/06/20 03:11:05;;;;;;;1.05;0.60;;;;;;;18.13;76.46;101123.16;20803127;28;20049;-77
2022/06/20 03:21:06;;;;;;;0.75;0.50;;;;;;;17.98;76.25;101112.69;20882713;28;20187;-77
2022/06/20 03:31:10;;;;;;;1.13;0.70;;;;;;;18.11;76.06;101137.59;20882602;28;20051;-75
2022/06/20 03:41:13;;;;;;;1.90;0.93;;;;;;;18.13;75.80;101115.09;20907061;28;20049;-75
2022/06/20 03:51:19;;;;;;;3.47;0.70;;;;;;;18.13;75.40;101105.16;20879674;28;20094;-75
2022/06/20 04:01:28;;;;;;;0.85;0.50;;;;;;;18.16;75.05;101093.25;20832433;28;20480;-76
2022/06/20 04:11:44;;;;;;;1.63;0.57;;;;;;;18.16;74.91;101085.19;20751341;28;20057;-76
2022/06/20 04:21:47;;;;;;;;;;;;;;;18.19;76.23;101090.31;20754906;28;20077;-76
2022/06/20 04:32:11;;;;;;;4.40;1.65;;;;;;;18.21;81.51;101080.25;20802369;28;20023;-77
2022/06/20 04:42:21;;;;;;;2.97;0.90;;;;;;;18.24;82.48;101080.81;20872311;28;20045;-75
2022/06/20 04:52:28;;;;;;;1.30;0.70;;;;;;;18.22;81.65;101066.63;20799597;28;20050;-74
2022/06/20 05:02:30;;;;;;;1.58;0.60;;;;;;;18.23;80.06;101057.53;20818844;28;20049;-74
2022/06/20 05:12:41;;;;;;;2.53;0.80;;;;;;;18.26;78.76;101061.81;20806754;28;20049;-74
2022/06/20 05:22:49;;;;;;;2.22;0.68;;;;;;;18.30;78.21;101065.94;20783499;28;20046;-74
2022/06/20 05:32:58;;;;;;;3.28;1.23;;;;;;;18.17;78.17;101041.91;20847929;28;21205;-74
2022/06/20 05:43:00;;;;;;;2.45;0.80;;;;;;;18.31;77.91;101064.97;20814245;28;20058;-74
2022/06/20 05:53:05;;;;;;;2.65;0.82;;;;;;;18.16;78.66;101067.16;20863930;28;20139;-75
2022/06/20 06:03:11;;;;;;;;;;;;;;;18.36;84.17;101107.69;20852591;28;20524;-76
2022/06/20 06:13:44;;;;;;;9.38;2.17;;;;;;;18.38;88.99;101114.66;20829478;28;20381;-76
2022/06/20 06:23:46;;;;;;;2.55;1.38;;;;;;;18.41;91.12;101121.63;20785324;28;20387;-76
2022/06/20 06:33:52;;;;;;;7.10;1.40;;;;;;;18.41;87.76;101133.25;20804030;28;20040;-76
2022/06/20 06:43:54;;;;;;;4.18;1.50;;;;;;;18.46;85.04;101148.16;20848148;28;20073;-75
2022/06/20 06:54:08;;;;;;;5.60;1.95;;;;;;;18.37;84.88;101142.59;20774699;28;20787;-76
2022/06/20 07:04:22;;;;;;;2.95;1.25;;;;;;;18.44;84.39;101139.34;20795849;28;20044;-76
2022/06/20 07:14:24;;;;;;;6.20;1.55;;;;;;;18.50;84.01;101160.38;20868229;28;20107;-75
2022/06/20 07:24:32;;;;;;;5.25;1.38;;;;;;;18.41;83.15;101130.53;20891960;28;20063;-75
2022/06/20 07:34:41;;;;;;;4.38;1.27;;;;;;;18.60;82.56;101155.91;20835599;28;20034;-77
2022/06/20 07:44:49;;;;;;;4.00;1.58;;;;;;;18.60;82.12;101150.53;20778792;28;20049;-74
2022/06/20 07:54:56;;;;;;;4.05;1.30;;;;;;;18.66;81.74;101149.09;20798614;28;20033;-75
2022/06/20 08:04:59;;;;;;;2.47;1.30;;;;;;;18.62;81.29;101153.94;20799610;28;20053;-74
2022/06/20 08:15:07;;;;;;;4.40;1.38;;;;;;;18.64;80.92;101161.88;20797181;28;20053;-74
2022/06/20 08:25:16;;;;;;;2.88;1.50;;;;;;;18.62;80.51;101166.53;20791734;28;20698;-75
2022/06/20 08:35:27;;;;;;;3.85;1.48;;;;;;;18.50;79.96;101158.56;20814316;28;20049;-75
2022/06/20 08:46:00;;;;;;;3.95;1.48;;;;;;;18.62;79.36;101153.06;20797765;28;20410;-75
2022/06/20 08:56:11;;;;;;;3.00;1.73;;;;;;;18.56;79.18;101165.25;20795046;28;20103;-75
2022/06/20 09:06:24;;;;;;;3.17;1.35;;;;;;;18.61;78.88;101164.84;20798431;28;20049;-75
2022/06/20 09:16:35;;;;;;;3.30;1.63;;;;;;;18.58;78.59;101189.38;20829800;28;20124;-75
2022/06/20 09:26:54;;;;;;;1.90;1.40;;;;;;;18.44;78.65;101156.41;20814808;28;20456;-75
2022/06/20 09:37:20;;;;;;;3.88;1.80;;;;;;;18.61;77.71;101176.50;20811525;28;20045;-75
2022/06/20 09:48:00;;;;;;;2.72;1.38;;;;;;;18.62;77.53;101170.13;20892870;28;20048;-75
2022/06/20 09:58:09;;;;;;;2.22;1.13;;;;;;;18.59;77.24;101183.00;20892812;28;20584;-75
2022/06/20 10:08:26;;;;;;;2.47;1.30;;;;;;;18.59;77.34;101194.66;20890610;28;20128;-75
2022/06/20 10:18:33;;;;;;;1.98;1.48;;;;;;;18.59;77.20;101202.75;20888281;28;20099;-75
2022/06/20 10:29:06;;;;;;;1.88;1.35;;;;;;;18.59;77.20;101208.13;20809775;28;20059;-75
2022/06/20 10:39:10;;;;;;;1.30;1.08;;;;;;;18.58;76.73;101211.81;20807850;28;20568;-75
2022/06/20 10:49:41;;;;;;;2.20;1.00;;;;;;;18.58;76.76;101237.91;20879573;28;20053;-75
2022/06/20 10:59:50;;;;;;;3.17;1.60;;;;;;;18.55;76.73;101233.63;20852428;28;20795;-75
2022/06/20 11:09:52;;;;;;;1.85;1.17;;;;;;;18.57;76.20;101242.47;20815956;28;20052;-75
2022/06/20 11:20:02;;;;;;;3.33;1.50;;;;;;;18.55;76.07;101244.41;20789985;28;20049;-75
2022/06/20 11:30:52;;;;;;;1.63;1.08;;;;;;;18.56;75.97;101246.16;20791605;28;20056;-75
2022/06/20 11:41:00;;;;;;;2.03;1.30;;;;;;;18.50;75.48;101236.75;20649201;28;20045;-75
2022/06/20 11:51:05;;;;;;;2.35;1.15;;;;;;;18.57;75.64;101242.47;20780227;28;20510;-76
2022/06/20 12:01:12;;;;;;;1.43;1.03;;;;;;;18.56;75.22;101262.31;20760407;28;20455;-75
2022/06/20 12:11:30;;;;;;;2.05;1.17;;;;;;;18.55;74.98;101257.88;20767466;28;20136;-75
2022/06/20 12:31:55;;;;;;;2.03;0.98;;;;;;;18.55;74.69;101276.75;20809600;28;20052;-75
2022/06/20 12:42:21;;;;;;;1.65;1.00;;;;;;;18.52;74.58;101271.63;20770445;28;20453;-75
2022/06/20 12:52:40;;;;;;;2.08;1.00;;;;;;;18.57;74.18;101257.78;20837160;28;20743;-76
2022/06/20 13:02:50;;;;;;;1.90;1.10;;;;;;;18.56;74.38;101283.91;20781394;28;20053;-75
2022/06/20 13:13:16;;;;;;;2.45;0.98;;;;;;;18.56;74.13;101283.91;20812863;28;20064;-75
2022/06/20 13:23:43;;;;;;;2.45;1.00;;;;;;;18.57;74.14;101296.38;20792611;28;20049;-76
2022/06/20 13:33:53;;;;;;;1.40;1.05;;;;;;;18.57;74.19;101300.91;20785637;28;20045;-75
2022/06/20 13:44:04;;;;;;;4.65;1.40;;;;;;;18.57;73.91;101309.88;20806643;28;20041;-74
2022/06/20 13:54:15;;;;;;;1.25;0.98;;;;;;;18.55;74.14;101310.00;20775879;28;20052;-74
2022/06/20 14:04:17;;;;;;;1.83;1.00;;;;;;;18.58;74.29;101345.75;20772871;28;20069;-74
2022/06/20 14:14:23;;;;;;;1.63;1.00;;;;;;;18.55;74.64;101346.88;20785624;28;20056;-74
2022/06/20 14:24:26;;;;;;;1.67;1.10;;;;;;;18.54;75.06;101361.34;20843386;28;20384;-74
2022/06/20 14:34:38;;;;;;;1.75;1.25;;;;;;;18.45;75.07;101348.63;20813474;28;20119;-74
2022/06/20 14:44:40;;;;;;;2.50;1.17;;;;;;;18.52;75.49;101364.19;20818069;28;20037;-74
2022/06/20 14:55:19;;;;;;;1.75;1.00;;;;;;;18.50;75.78;101371.53;20844644;28;20060;-74
2022/06/20 15:05:33;;;;;;;1.30;1.10;;;;;;;18.50;75.65;101367.97;20780119;28;20041;-74
2022/06/20 15:15:38;;;;;;;2.05;1.20;;;;;;;18.49;75.76;101364.44;20772419;28;20041;-74
2022/06/20 15:25:45;;;;;;;3.83;1.20;;;;;;;18.47;75.73;101352.06;20812277;28;20060;-74
2022/06/20 15:35:56;;;;;;;3.85;1.23;;;;;;;18.50;77.04;101358.06;20772634;28;20042;-74
2022/06/20 15:46:04;;;;;;;1.73;1.13;;;;;;;18.51;77.26;101359.78;20761501;28;20050;-76
2022/06/20 15:56:15;;;;;;;1.33;1.20;;;;;;;18.48;77.35;101346.56;20753854;28;20136;-76
2022/06/20 16:06:26;;;;;;;1.30;1.00;;;;;;;18.51;77.13;101359.78;20769466;28;20045;-75
2022/06/20 16:16:30;;;;;;;1.13;1.00;;;;;;;18.51;77.73;101372.38;20771355;28;20049;-76
2022/06/20 16:26:44;;;;;;;2.13;1.13;;;;;;;18.50;78.15;101376.94;20794160;28;20132;-77
2022/06/20 16:37:02;;;;;;;1.75;1.10;;;;;;;18.50;77.90;101374.22;20840197;28;20045;-76
2022/06/20 16:47:29;;;;;;;1.90;1.20;;;;;;;18.50;77.85;101378.75;20765427;28;20052;-76
2022/06/20 16:57:41;;;;;;;3.17;1.58;;;;;;;18.48;78.49;101364.56;20772052;28;20130;-78
2022/06/20 17:08:09;;;;;;;3.95;1.90;;;;;;;18.47;78.64;101370.94;20781164;28;20048;-76
2022/06/20 17:18:18;;;;;;;3.03;1.58;;;;;;;18.46;78.06;101374.59;20785860;28;20045;-76
2022/06/20 17:28:31;;;;;;;3.70;1.60;;;;;;;18.41;78.16;101366.94;20790927;28;20048;-76
2022/06/20 17:38:49;;;;;;;3.90;2.00;;;;;;;18.44;78.54;101381.97;20849281;28;20057;-77
2022/06/20 17:49:02;;;;;;;4.32;1.80;;;;;;;18.43;78.85;101385.66;20838623;28;20034;-76
2022/06/20 17:59:37;;;;;;;3.15;1.73;;;;;;;18.42;79.22;101384.81;20868642;28;20168;-76
2022/06/20 18:09:43;;;;;;;3.13;1.80;;;;;;;18.41;79.45;101391.19;20852194;28;20037;-77
2022/06/20 18:19:48;;;;;;;4.50;1.98;;;;;;;18.18;79.88;101350.81;20799205;28;20046;-75
2022/06/20 18:29:50;;;;;;;;;;;;;;;18.39;79.39;101391.31;20836767;28;20395;-76
2022/06/20 18:39:58;;;;;;;3.95;1.73;;;;;;;18.39;79.20;101395.84;20833192;28;19921;-76
2022/06/20 18:50:18;;;;;;;2.78;1.70;;;;;;;18.37;79.37;101400.50;20806934;28;20049;-76
2022/06/20 19:00:36;;;;;;;3.38;1.67;;;;;;;18.37;79.31;101405.91;20782800;28;20050;-76
2022/06/20 19:11:00;;;;;;;4.20;1.90;;;;;;;18.35;79.23;101406.03;20859283;28;20102;-76
2022/06/20 19:21:20;;;;;;;5.20;1.70;;;;;;;18.36;79.43;101413.13;20872679;28;20053;-76
2022/06/20 19:31:32;;;;;;;4.60;1.67;;;;;;;18.27;79.64;101403.09;20865224;28;20128;-76
2022/06/20 19:41:46;;;;;;;5.10;1.75;;;;;;;18.23;79.71;101398.97;20831846;28;20402;-76
2022/06/20 19:51:49;;;;;;;4.45;1.67;;;;;;;18.34;79.62;101425.88;20789863;28;20111;-76
2022/06/20 20:01:50;;;;;;;3.40;1.58;;;;;;;18.34;79.71;101430.38;20796528;28;20405;-76
2022/06/20 20:11:53;;;;;;;3.50;1.33;;;;;;;18.33;80.03;101445.72;20784239;28;20049;-76
2022/06/20 20:22:00;;;;;;;2.65;1.50;;;;;;;18.25;80.08;101432.88;20795222;28;20049;-76
2022/06/20 20:32:24;;;;;;;3.22;1.23;;;;;;;18.30;80.22;101432.50;20868702;28;20052;-76
2022/06/20 20:42:47;;;;;;;3.05;1.40;;;;;;;18.11;80.34;101398.13;20909168;28;20056;-76
2022/06/20 20:52:57;;;;;;;1.90;1.10;;;;;;;18.30;80.54;101429.81;20931658;28;20099;-76
2022/06/20 21:03:03;;;;;;;2.50;1.65;;;;;;;18.29;80.65;101438.88;20768821;28;20049;-76
2022/06/20 21:13:07;;;;;;;3.60;1.27;;;;;;;18.21;80.73;101433.25;20810476;28;20045;-76
2022/06/20 21:23:09;;;;;;;2.60;1.13;;;;;;;18.11;80.66;101422.38;20812543;28;20378;-76
2022/06/20 21:33:11;;;;;;;4.35;1.63;;;;;;;18.08;80.84;101430.69;20812967;28;20453;-76
2022/06/20 21:43:21;;;;;;;2.20;1.02;;;;;;;18.26;80.83;101449.91;20811137;28;20041;-76
2022/06/20 21:53:37;;;;;;;4.57;1.40;;;;;;;18.25;80.75;101454.44;20808695;28;20103;-76
2022/06/20 22:03:41;;;;;;;3.65;1.27;;;;;;;18.25;80.97;101453.59;20808494;28;20041;-76
2022/06/20 22:14:05;;;;;;;3.83;1.10;;;;;;;18.24;80.82;101451.88;20882204;28;20563;-76
2022/06/20 22:24:17;;;;;;;2.15;0.98;;;;;;;18.23;80.81;101440.22;20808223;28;20050;-76
2022/06/20 22:34:22;;;;;;;1.67;1.00;;;;;;;18.22;80.70;101454.69;20807011;28;20050;-76
2022/06/20 22:44:23;;;;;;;0.90;0.70;;;;;;;18.14;80.62;101429.38;20888931;28;20448;-76
2022/06/20 22:54:29;;;;;;;1.45;0.80;;;;;;;18.00;80.51;101382.78;20889043;28;20049;-76
2022/06/20 23:04:40;;;;;;;3.10;1.38;;;;;;;18.21;80.27;101404.47;20844248;28;20050;-76
2022/06/20 23:14:45;;;;;;;1.25;0.85;;;;;;;18.21;80.20;101414.41;20805100;28;20049;-76
2022/06/20 23:24:48;;;;;;;1.60;0.70;;;;;;;18.19;80.03;101417.19;20868106;28;20045;-76
2022/06/20 23:34:52;;;;;;;1.20;0.70;;;;;;;18.19;79.91;101421.75;20885793;28;20103;-76
2022/06/20 23:44:55;;;;;;;1.07;0.90;;;;;;;18.07;79.68;101419.06;20867678;28;20049;-76
2022/06/20 23:54:56;;;;;;;1.48;0.68;;;;;;;18.03;79.59;101406.81;20884863;28;20405;-76
